SASO2: Little River At Sasakwa, OK

Data processed at Tue May 21 2019 23:50


All information presented herein is the property of the government of the United States of America and may be revised or deleted at any time without prior notice.
Dissemination of this information without the expressed written consent of the Public Affairs Office, Tulsa District U.S. Army Corps of Engineers is strictly prohibited.
These data are gathered electronically and, as presented, have not undergone any form of quality control. These data are not guaranteed to be valid or correct.
Go to home page.
Go to station list.
Go to home page.

Upstream stations:

Downstream station:
Previous Day
Next Day
Current Day
    
SHEF ID:       SASO2     Little River near Sasakwa, OK
STATION TYPE:  
Regulating: Stage =    26.00, Flow =    14931

                STAGE  RIV-FLOW  BAT-LOAD
                   ft       cfs      volt
              Ccp-Rev   Ccp-Rev   Ccp-Rev
(US/Central)
05/21 00:00      6.20       646     12.41
05/21 01:00      6.17       638     12.41
05/21 02:00      6.12       624     12.41
05/21 03:00      6.10       618     12.41
05/21 04:00      6.05       604     12.41
05/21 05:00      5.99       587     12.41
05/21 06:00      5.96       579     12.41
05/21 07:00      6.23       655     12.41
05/21 08:00      7.81      1179     12.41
05/21 09:00     10.15      2172     12.41
05/21 10:00     11.23      2715     12.57
05/21 11:00     11.31      2757     12.65
05/21 12:00     11.14      2668     12.65
05/21 13:00     11.06      2626     12.89
05/21 14:00     11.07      2631     13.68
05/21 15:00     11.23      2715     14.00
05/21 16:00     11.44      2827     13.92
05/21 17:00     11.63      2929     13.84
05/21 18:00     11.75      2995     13.68
05/21 19:00     11.79      3017     13.53
05/21 20:00     11.82      3033     13.13
05/21 21:00     11.88      3067     12.73
05/21 22:00     11.95      3106     12.41
05/21 23:00     12.07      3173     12.41